sensor_id;sensor_type;location;lat;lon;timestamp;P1;durP1;ratioP1;P2;durP2;ratioP2
7361;SDS011;3721;44.490;11.220;2023-02-28T00:00:25;13.40;;;7.00;;
7361;SDS011;3721;44.490;11.220;2023-02-28T00:02:51;11.23;;;6.37;;
7361;SDS011;3721;44.490;11.220;2023-02-28T00:05:18;12.07;;;6.67;;
7361;SDS011;3721;44.490;11.220;2023-02-28T00:07:45;10.87;;;6.00;;
7361;SDS011;3721;44.490;11.220;2023-02-28T00:10:13;15.40;;;6.63;;
7361;SDS011;3721;44.490;11.220;2023-02-28T00:12:40;16.30;;;7.00;;
7361;SDS011;3721;44.490;11.220;2023-02-28T00:15:07;10.23;;;5.87;;
7361;SDS011;3721;44.490;11.220;2023-02-28T00:42:03;13.10;;;6.60;;
7361;SDS011;3721;44.490;11.220;2023-02-28T00:44:29;11.70;;;5.77;;
7361;SDS011;3721;44.490;11.220;2023-02-28T00:46:56;14.13;;;7.93;;
7361;SDS011;3721;44.490;11.220;2023-02-28T00:49:22;10.03;;;5.40;;
7361;SDS011;3721;44.490;11.220;2023-02-28T00:51:48;15.20;;;6.27;;
7361;SDS011;3721;44.490;11.220;2023-02-28T00:54:14;10.77;;;5.57;;
7361;SDS011;3721;44.490;11.220;2023-02-28T00:56:40;10.57;;;6.47;;
7361;SDS011;3721;44.490;11.220;2023-02-28T00:59:05;11.07;;;5.87;;
7361;SDS011;3721;44.490;11.220;2023-02-28T01:01:31;13.57;;;5.27;;
7361;SDS011;3721;44.490;11.220;2023-02-28T01:03:57;10.07;;;6.10;;
7361;SDS011;3721;44.490;11.220;2023-02-28T01:06:23;11.03;;;6.13;;
7361;SDS011;3721;44.490;11.220;2023-02-28T01:08:49;11.73;;;6.00;;
7361;SDS011;3721;44.490;11.220;2023-02-28T01:11:16;11.20;;;6.37;;
7361;SDS011;3721;44.490;11.220;2023-02-28T01:13:42;8.63;;;4.70;;
7361;SDS011;3721;44.490;11.220;2023-02-28T01:16:10;12.00;;;5.37;;
7361;SDS011;3721;44.490;11.220;2023-02-28T01:18:36;11.83;;;5.90;;
7361;SDS011;3721;44.490;11.220;2023-02-28T01:21:06;11.20;;;5.90;;
7361;SDS011;3721;44.490;11.220;2023-02-28T01:23:33;9.80;;;5.30;;
7361;SDS011;3721;44.490;11.220;2023-02-28T01:26:09;10.03;;;5.57;;
7361;SDS011;3721;44.490;11.220;2023-02-28T01:28:37;7.87;;;4.80;;
7361;SDS011;3721;44.490;11.220;2023-02-28T01:31:03;8.67;;;5.20;;
7361;SDS011;3721;44.490;11.220;2023-02-28T01:33:30;9.50;;;4.90;;
7361;SDS011;3721;44.490;11.220;2023-02-28T01:35:59;11.33;;;5.87;;
7361;SDS011;3721;44.490;11.220;2023-02-28T01:38:34;10.90;;;6.17;;
7361;SDS011;3721;44.490;11.220;2023-02-28T01:41:03;8.40;;;5.30;;
7361;SDS011;3721;44.490;11.220;2023-02-28T01:43:30;10.50;;;4.77;;
7361;SDS011;3721;44.490;11.220;2023-02-28T01:45:58;17.63;;;7.47;;
7361;SDS011;3721;44.490;11.220;2023-02-28T01:48:25;8.90;;;4.40;;
7361;SDS011;3721;44.490;11.220;2023-02-28T01:50:56;10.93;;;5.10;;
7361;SDS011;3721;44.490;11.220;2023-02-28T01:53:32;8.70;;;5.40;;
7361;SDS011;3721;44.490;11.220;2023-02-28T01:56:04;13.47;;;5.00;;
7361;SDS011;3721;44.490;11.220;2023-02-28T01:58:31;9.30;;;4.37;;
7361;SDS011;3721;44.490;11.220;2023-02-28T02:00:58;16.03;;;7.67;;
7361;SDS011;3721;44.490;11.220;2023-02-28T02:03:24;15.43;;;5.17;;
7361;SDS011;3721;44.490;11.220;2023-02-28T02:05:49;8.30;;;4.83;;
7361;SDS011;3721;44.490;11.220;2023-02-28T02:08:25;14.10;;;6.13;;
7361;SDS011;3721;44.490;11.220;2023-02-28T02:10:56;8.77;;;4.53;;
7361;SDS011;3721;44.490;11.220;2023-02-28T02:18:48;7.03;;;4.27;;
7361;SDS011;3721;44.490;11.220;2023-02-28T02:27:27;6.97;;;4.67;;
7361;SDS011;3721;44.490;11.220;2023-02-28T02:38:05;10.13;;;5.00;;
7361;SDS011;3721;44.490;11.220;2023-02-28T02:46:40;9.10;;;4.90;;
7361;SDS011;3721;44.490;11.220;2023-02-28T02:49:09;8.57;;;4.97;;
7361;SDS011;3721;44.490;11.220;2023-02-28T02:51:42;13.13;;;4.67;;
7361;SDS011;3721;44.490;11.220;2023-02-28T02:54:11;7.80;;;4.37;;
7361;SDS011;3721;44.490;11.220;2023-02-28T02:56:53;11.10;;;5.17;;
7361;SDS011;3721;44.490;11.220;2023-02-28T02:59:22;12.03;;;5.77;;
7361;SDS011;3721;44.490;11.220;2023-02-28T03:01:51;11.73;;;5.77;;
7361;SDS011;3721;44.490;11.220;2023-02-28T03:04:21;10.23;;;5.43;;
7361;SDS011;3721;44.490;11.220;2023-02-28T03:06:50;10.87;;;4.33;;
7361;SDS011;3721;44.490;11.220;2023-02-28T03:09:23;10.13;;;5.53;;
7361;SDS011;3721;44.490;11.220;2023-02-28T03:11:49;10.47;;;5.73;;
7361;SDS011;3721;44.490;11.220;2023-02-28T03:23:45;8.10;;;4.50;;
7361;SDS011;3721;44.490;11.220;2023-02-28T03:26:20;9.37;;;5.97;;
7361;SDS011;3721;44.490;11.220;2023-02-28T03:31:52;7.47;;;4.67;;
7361;SDS011;3721;44.490;11.220;2023-02-28T03:34:33;7.53;;;5.17;;
7361;SDS011;3721;44.490;11.220;2023-02-28T03:37:08;7.40;;;4.20;;
7361;SDS011;3721;44.490;11.220;2023-02-28T03:39:39;8.30;;;4.80;;
7361;SDS011;3721;44.490;11.220;2023-02-28T03:42:09;9.30;;;5.10;;
7361;SDS011;3721;44.490;11.220;2023-02-28T03:44:41;11.27;;;6.00;;
7361;SDS011;3721;44.490;11.220;2023-02-28T03:49:45;7.30;;;4.27;;
7361;SDS011;3721;44.490;11.220;2023-02-28T03:52:19;7.97;;;5.23;;
7361;SDS011;3721;44.490;11.220;2023-02-28T03:54:50;9.90;;;5.47;;
7361;SDS011;3721;44.490;11.220;2023-02-28T03:59:47;9.63;;;5.20;;
7361;SDS011;3721;44.490;11.220;2023-02-28T04:02:21;9.67;;;5.50;;
7361;SDS011;3721;44.490;11.220;2023-02-28T04:04:47;8.53;;;5.07;;
7361;SDS011;3721;44.490;11.220;2023-02-28T04:07:13;6.80;;;3.93;;
7361;SDS011;3721;44.490;11.220;2023-02-28T04:09:40;11.17;;;5.37;;
7361;SDS011;3721;44.490;11.220;2023-02-28T04:12:06;14.73;;;5.80;;
7361;SDS011;3721;44.490;11.220;2023-02-28T04:14:32;9.33;;;5.43;;
7361;SDS011;3721;44.490;11.220;2023-02-28T04:16:57;8.60;;;5.27;;
7361;SDS011;3721;44.490;11.220;2023-02-28T04:19:23;11.20;;;4.90;;
7361;SDS011;3721;44.490;11.220;2023-02-28T04:21:50;8.50;;;5.00;;
7361;SDS011;3721;44.490;11.220;2023-02-28T04:24:18;8.60;;;4.27;;
7361;SDS011;3721;44.490;11.220;2023-02-28T04:26:47;9.90;;;6.33;;
7361;SDS011;3721;44.490;11.220;2023-02-28T04:29:19;7.53;;;5.00;;
7361;SDS011;3721;44.490;11.220;2023-02-28T04:31:46;9.00;;;4.20;;
7361;SDS011;3721;44.490;11.220;2023-02-28T04:34:12;8.60;;;4.80;;
7361;SDS011;3721;44.490;11.220;2023-02-28T04:36:38;6.67;;;4.00;;
7361;SDS011;3721;44.490;11.220;2023-02-28T04:39:03;7.00;;;4.70;;
7361;SDS011;3721;44.490;11.220;2023-02-28T04:41:29;7.77;;;5.20;;
7361;SDS011;3721;44.490;11.220;2023-02-28T04:43:55;16.33;;;6.93;;
7361;SDS011;3721;44.490;11.220;2023-02-28T04:46:21;11.20;;;5.57;;
7361;SDS011;3721;44.490;11.220;2023-02-28T04:48:47;9.83;;;4.93;;
7361;SDS011;3721;44.490;11.220;2023-02-28T04:51:14;8.20;;;5.13;;
7361;SDS011;3721;44.490;11.220;2023-02-28T04:53:41;9.77;;;4.90;;
7361;SDS011;3721;44.490;11.220;2023-02-28T04:56:08;8.17;;;4.67;;
7361;SDS011;3721;44.490;11.220;2023-02-28T04:58:37;9.50;;;5.60;;
7361;SDS011;3721;44.490;11.220;2023-02-28T05:01:04;15.30;;;5.43;;
7361;SDS011;3721;44.490;11.220;2023-02-28T05:03:41;10.30;;;5.63;;
7361;SDS011;3721;44.490;11.220;2023-02-28T05:06:08;9.70;;;5.20;;
7361;SDS011;3721;44.490;11.220;2023-02-28T05:08:35;10.20;;;4.80;;
7361;SDS011;3721;44.490;11.220;2023-02-28T05:11:01;6.73;;;5.00;;
7361;SDS011;3721;44.490;11.220;2023-02-28T05:13:27;9.37;;;5.43;;
7361;SDS011;3721;44.490;11.220;2023-02-28T05:15:53;8.33;;;5.80;;
7361;SDS011;3721;44.490;11.220;2023-02-28T05:18:19;8.20;;;4.83;;
7361;SDS011;3721;44.490;11.220;2023-02-28T05:20:45;9.33;;;5.30;;
7361;SDS011;3721;44.490;11.220;2023-02-28T05:23:31;7.75;;;5.35;;
7361;SDS011;3721;44.490;11.220;2023-02-28T05:25:57;8.10;;;4.87;;
7361;SDS011;3721;44.490;11.220;2023-02-28T05:28:23;8.13;;;5.50;;
7361;SDS011;3721;44.490;11.220;2023-02-28T05:30:49;11.60;;;5.00;;
7361;SDS011;3721;44.490;11.220;2023-02-28T05:33:15;8.30;;;5.53;;
7361;SDS011;3721;44.490;11.220;2023-02-28T05:35:41;8.20;;;4.87;;
7361;SDS011;3721;44.490;11.220;2023-02-28T05:38:09;8.33;;;5.40;;
7361;SDS011;3721;44.490;11.220;2023-02-28T05:40:35;7.47;;;4.70;;
7361;SDS011;3721;44.490;11.220;2023-02-28T05:43:04;11.67;;;6.53;;
7361;SDS011;3721;44.490;11.220;2023-02-28T05:45:29;11.57;;;5.33;;
7361;SDS011;3721;44.490;11.220;2023-02-28T05:47:55;9.30;;;5.40;;
7361;SDS011;3721;44.490;11.220;2023-02-28T05:50:21;7.20;;;4.40;;
7361;SDS011;3721;44.490;11.220;2023-02-28T05:52:50;10.40;;;5.57;;
7361;SDS011;3721;44.490;11.220;2023-02-28T05:55:16;10.47;;;5.77;;
7361;SDS011;3721;44.490;11.220;2023-02-28T05:57:41;13.13;;;6.03;;
7361;SDS011;3721;44.490;11.220;2023-02-28T06:00:07;8.30;;;5.63;;
7361;SDS011;3721;44.490;11.220;2023-02-28T06:02:34;12.57;;;6.27;;
7361;SDS011;3721;44.490;11.220;2023-02-28T06:07:38;9.73;;;5.20;;
7361;SDS011;3721;44.490;11.220;2023-02-28T06:10:04;11.13;;;6.17;;
7361;SDS011;3721;44.490;11.220;2023-02-28T06:12:30;14.23;;;8.63;;
7361;SDS011;3721;44.490;11.220;2023-02-28T06:14:55;10.50;;;5.70;;
7361;SDS011;3721;44.490;11.220;2023-02-28T06:17:21;9.53;;;5.13;;
7361;SDS011;3721;44.490;11.220;2023-02-28T06:19:47;12.93;;;6.30;;
7361;SDS011;3721;44.490;11.220;2023-02-28T06:22:13;10.23;;;5.83;;
7361;SDS011;3721;44.490;11.220;2023-02-28T06:24:38;10.90;;;6.43;;
7361;SDS011;3721;44.490;11.220;2023-02-28T06:27:04;9.27;;;6.20;;
7361;SDS011;3721;44.490;11.220;2023-02-28T06:29:33;10.40;;;6.00;;
7361;SDS011;3721;44.490;11.220;2023-02-28T06:31:59;9.77;;;6.40;;
7361;SDS011;3721;44.490;11.220;2023-02-28T06:34:25;19.33;;;7.27;;
7361;SDS011;3721;44.490;11.220;2023-02-28T06:36:51;14.57;;;6.53;;
7361;SDS011;3721;44.490;11.220;2023-02-28T06:39:17;10.37;;;6.63;;
7361;SDS011;3721;44.490;11.220;2023-02-28T06:41:44;11.50;;;7.00;;
7361;SDS011;3721;44.490;11.220;2023-02-28T06:44:20;12.80;;;6.90;;
7361;SDS011;3721;44.490;11.220;2023-02-28T06:46:47;8.37;;;5.10;;
7361;SDS011;3721;44.490;11.220;2023-02-28T06:49:13;14.33;;;7.10;;
7361;SDS011;3721;44.490;11.220;2023-02-28T06:51:40;11.83;;;6.90;;
7361;SDS011;3721;44.490;11.220;2023-02-28T06:54:08;9.63;;;6.60;;
7361;SDS011;3721;44.490;11.220;2023-02-28T06:56:34;11.53;;;6.50;;
7361;SDS011;3721;44.490;11.220;2023-02-28T06:59:00;9.93;;;6.70;;
7361;SDS011;3721;44.490;11.220;2023-02-28T07:01:26;10.53;;;6.10;;
7361;SDS011;3721;44.490;11.220;2023-02-28T07:03:53;13.13;;;7.53;;
7361;SDS011;3721;44.490;11.220;2023-02-28T07:08:47;12.27;;;6.87;;
7361;SDS011;3721;44.490;11.220;2023-02-28T07:11:13;11.80;;;6.60;;
7361;SDS011;3721;44.490;11.220;2023-02-28T07:13:39;12.30;;;6.40;;
7361;SDS011;3721;44.490;11.220;2023-02-28T07:16:06;11.63;;;6.63;;
7361;SDS011;3721;44.490;11.220;2023-02-28T07:18:34;10.40;;;6.20;;
7361;SDS011;3721;44.490;11.220;2023-02-28T07:21:07;10.20;;;6.43;;
7361;SDS011;3721;44.490;11.220;2023-02-28T07:23:34;15.03;;;6.07;;
7361;SDS011;3721;44.490;11.220;2023-02-28T07:26:00;10.90;;;6.50;;
7361;SDS011;3721;44.490;11.220;2023-02-28T07:28:26;10.27;;;6.20;;
7361;SDS011;3721;44.490;11.220;2023-02-28T07:30:51;14.57;;;8.00;;
7361;SDS011;3721;44.490;11.220;2023-02-28T07:33:17;12.00;;;8.00;;
7361;SDS011;3721;44.490;11.220;2023-02-28T07:35:43;16.57;;;8.33;;
7361;SDS011;3721;44.490;11.220;2023-02-28T07:38:09;13.47;;;7.07;;
7361;SDS011;3721;44.490;11.220;2023-02-28T07:40:35;11.57;;;6.40;;
7361;SDS011;3721;44.490;11.220;2023-02-28T07:43:01;10.63;;;6.63;;
7361;SDS011;3721;44.490;11.220;2023-02-28T07:45:28;17.00;;;8.30;;
7361;SDS011;3721;44.490;11.220;2023-02-28T07:47:54;10.93;;;7.80;;
7361;SDS011;3721;44.490;11.220;2023-02-28T07:50:20;14.10;;;7.33;;
7361;SDS011;3721;44.490;11.220;2023-02-28T07:52:46;16.17;;;8.20;;
7361;SDS011;3721;44.490;11.220;2023-02-28T07:55:12;12.20;;;8.20;;
7361;SDS011;3721;44.490;11.220;2023-02-28T07:57:39;14.50;;;8.30;;
7361;SDS011;3721;44.490;11.220;2023-02-28T08:00:06;13.97;;;9.30;;
7361;SDS011;3721;44.490;11.220;2023-02-28T08:02:34;14.70;;;7.70;;
7361;SDS011;3721;44.490;11.220;2023-02-28T08:05:00;14.13;;;8.87;;
7361;SDS011;3721;44.490;11.220;2023-02-28T08:07:26;13.43;;;7.30;;
7361;SDS011;3721;44.490;11.220;2023-02-28T08:09:51;14.27;;;8.70;;
7361;SDS011;3721;44.490;11.220;2023-02-28T08:12:17;20.03;;;8.40;;
7361;SDS011;3721;44.490;11.220;2023-02-28T08:14:43;16.07;;;8.33;;
7361;SDS011;3721;44.490;11.220;2023-02-28T08:17:09;14.37;;;8.47;;
7361;SDS011;3721;44.490;11.220;2023-02-28T08:19:35;15.33;;;8.60;;
7361;SDS011;3721;44.490;11.220;2023-02-28T08:22:01;14.70;;;8.47;;
7361;SDS011;3721;44.490;11.220;2023-02-28T08:24:26;12.70;;;8.23;;
7361;SDS011;3721;44.490;11.220;2023-02-28T08:26:52;14.87;;;8.90;;
7361;SDS011;3721;44.490;11.220;2023-02-28T08:29:18;15.27;;;8.63;;
7361;SDS011;3721;44.490;11.220;2023-02-28T08:31:43;15.17;;;8.37;;
7361;SDS011;3721;44.490;11.220;2023-02-28T08:34:09;14.60;;;8.27;;
7361;SDS011;3721;44.490;11.220;2023-02-28T08:36:37;15.50;;;8.97;;
7361;SDS011;3721;44.490;11.220;2023-02-28T08:39:04;14.17;;;8.60;;
7361;SDS011;3721;44.490;11.220;2023-02-28T08:41:30;18.00;;;9.47;;
7361;SDS011;3721;44.490;11.220;2023-02-28T08:43:56;18.70;;;9.90;;
7361;SDS011;3721;44.490;11.220;2023-02-28T08:46:22;15.93;;;9.70;;
7361;SDS011;3721;44.490;11.220;2023-02-28T08:48:50;17.27;;;8.90;;
7361;SDS011;3721;44.490;11.220;2023-02-28T08:51:18;18.47;;;10.60;;
7361;SDS011;3721;44.490;11.220;2023-02-28T08:53:50;14.43;;;8.90;;
7361;SDS011;3721;44.490;11.220;2023-02-28T08:56:20;14.43;;;9.83;;
7361;SDS011;3721;44.490;11.220;2023-02-28T08:58:47;15.37;;;9.60;;
7361;SDS011;3721;44.490;11.220;2023-02-28T09:01:21;17.30;;;10.17;;
7361;SDS011;3721;44.490;11.220;2023-02-28T09:03:49;13.00;;;8.13;;
7361;SDS011;3721;44.490;11.220;2023-02-28T09:06:16;14.13;;;8.60;;
7361;SDS011;3721;44.490;11.220;2023-02-28T09:08:43;14.80;;;9.03;;
7361;SDS011;3721;44.490;11.220;2023-02-28T09:11:09;17.77;;;9.07;;
7361;SDS011;3721;44.490;11.220;2023-02-28T09:13:36;16.87;;;8.40;;
7361;SDS011;3721;44.490;11.220;2023-02-28T09:16:02;17.27;;;9.80;;
7361;SDS011;3721;44.490;11.220;2023-02-28T09:18:29;15.83;;;9.60;;
7361;SDS011;3721;44.490;11.220;2023-02-28T09:20:55;17.60;;;10.10;;
7361;SDS011;3721;44.490;11.220;2023-02-28T09:23:21;14.03;;;8.93;;
7361;SDS011;3721;44.490;11.220;2023-02-28T09:25:52;21.37;;;7.90;;
7361;SDS011;3721;44.490;11.220;2023-02-28T09:28:19;15.33;;;8.87;;
7361;SDS011;3721;44.490;11.220;2023-02-28T09:30:47;16.20;;;9.20;;
7361;SDS011;3721;44.490;11.220;2023-02-28T09:33:14;15.20;;;8.43;;
7361;SDS011;3721;44.490;11.220;2023-02-28T09:35:40;13.13;;;7.67;;
7361;SDS011;3721;44.490;11.220;2023-02-28T09:38:08;13.47;;;7.40;;
7361;SDS011;3721;44.490;11.220;2023-02-28T09:40:35;16.47;;;8.20;;
7361;SDS011;3721;44.490;11.220;2023-02-28T09:43:02;11.07;;;7.70;;
7361;SDS011;3721;44.490;11.220;2023-02-28T09:47:56;15.60;;;7.70;;
7361;SDS011;3721;44.490;11.220;2023-02-28T09:50:28;12.20;;;7.83;;
7361;SDS011;3721;44.490;11.220;2023-02-28T09:52:57;15.00;;;8.40;;
7361;SDS011;3721;44.490;11.220;2023-02-28T09:55:32;14.27;;;8.17;;
7361;SDS011;3721;44.490;11.220;2023-02-28T09:57:59;16.87;;;9.43;;
7361;SDS011;3721;44.490;11.220;2023-02-28T10:01:00;11.90;;;7.83;;
7361;SDS011;3721;44.490;11.220;2023-02-28T10:08:22;13.13;;;8.00;;
7361;SDS011;3721;44.490;11.220;2023-02-28T10:10:51;11.97;;;7.60;;
7361;SDS011;3721;44.490;11.220;2023-02-28T10:16:10;12.20;;;8.57;;
7361;SDS011;3721;44.490;11.220;2023-02-28T10:18:44;17.73;;;9.03;;
7361;SDS011;3721;44.490;11.220;2023-02-28T10:21:15;13.37;;;8.07;;
7361;SDS011;3721;44.490;11.220;2023-02-28T10:23:53;12.27;;;8.43;;
7361;SDS011;3721;44.490;11.220;2023-02-28T10:26:27;14.10;;;7.80;;
7361;SDS011;3721;44.490;11.220;2023-02-28T10:28:55;18.63;;;8.80;;
7361;SDS011;3721;44.490;11.220;2023-02-28T10:31:20;12.90;;;8.30;;
7361;SDS011;3721;44.490;11.220;2023-02-28T10:33:46;14.70;;;8.87;;
7361;SDS011;3721;44.490;11.220;2023-02-28T10:36:17;16.17;;;9.60;;
7361;SDS011;3721;44.490;11.220;2023-02-28T10:38:44;17.67;;;9.67;;
7361;SDS011;3721;44.490;11.220;2023-02-28T10:41:12;14.57;;;7.60;;
7361;SDS011;3721;44.490;11.220;2023-02-28T10:43:40;13.50;;;7.70;;
7361;SDS011;3721;44.490;11.220;2023-02-28T10:51:03;15.87;;;9.60;;
7361;SDS011;3721;44.490;11.220;2023-02-28T10:53:35;16.33;;;9.13;;
7361;SDS011;3721;44.490;11.220;2023-02-28T10:56:18;20.53;;;9.33;;
7361;SDS011;3721;44.490;11.220;2023-02-28T10:58:55;18.87;;;9.50;;
7361;SDS011;3721;44.490;11.220;2023-02-28T11:01:34;15.87;;;8.50;;
7361;SDS011;3721;44.490;11.220;2023-02-28T11:04:18;16.53;;;9.80;;
7361;SDS011;3721;44.490;11.220;2023-02-28T11:09:44;15.93;;;8.57;;
7361;SDS011;3721;44.490;11.220;2023-02-28T11:12:22;13.70;;;7.70;;
7361;SDS011;3721;44.490;11.220;2023-02-28T11:14:52;13.20;;;8.60;;
7361;SDS011;3721;44.490;11.220;2023-02-28T11:17:31;17.03;;;8.90;;
7361;SDS011;3721;44.490;11.220;2023-02-28T11:20:04;12.80;;;8.00;;
7361;SDS011;3721;44.490;11.220;2023-02-28T11:22:33;19.53;;;9.07;;
7361;SDS011;3721;44.490;11.220;2023-02-28T11:25:06;13.37;;;7.60;;
7361;SDS011;3721;44.490;11.220;2023-02-28T11:27:47;15.81;;;8.93;;
7361;SDS011;3721;44.490;11.220;2023-02-28T11:30:36;16.00;;;7.94;;
7361;SDS011;3721;44.490;11.220;2023-02-28T11:33:23;15.90;;;8.33;;
7361;SDS011;3721;44.490;11.220;2023-02-28T11:36:04;16.19;;;8.47;;
7361;SDS011;3721;44.490;11.220;2023-02-28T11:38:39;16.13;;;7.93;;
7361;SDS011;3721;44.490;11.220;2023-02-28T11:41:10;16.40;;;8.13;;
7361;SDS011;3721;44.490;11.220;2023-02-28T11:46:44;12.73;;;7.60;;
7361;SDS011;3721;44.490;11.220;2023-02-28T11:49:30;12.97;;;7.93;;
7361;SDS011;3721;44.490;11.220;2023-02-28T12:05:46;11.13;;;7.03;;
7361;SDS011;3721;44.490;11.220;2023-02-28T12:11:06;12.23;;;6.73;;
7361;SDS011;3721;44.490;11.220;2023-02-28T12:19:07;13.40;;;6.97;;
7361;SDS011;3721;44.490;11.220;2023-02-28T12:27:22;15.93;;;7.20;;
7361;SDS011;3721;44.490;11.220;2023-02-28T12:32:23;12.47;;;7.73;;
7361;SDS011;3721;44.490;11.220;2023-02-28T12:34:57;15.00;;;8.00;;
7361;SDS011;3721;44.490;11.220;2023-02-28T12:40:00;14.40;;;8.80;;
7361;SDS011;3721;44.490;11.220;2023-02-28T12:42:31;16.40;;;7.60;;
7361;SDS011;3721;44.490;11.220;2023-02-28T12:44:59;19.50;;;8.47;;
7361;SDS011;3721;44.490;11.220;2023-02-28T12:47:26;12.73;;;6.20;;
7361;SDS011;3721;44.490;11.220;2023-02-28T12:50:03;10.30;;;6.37;;
7361;SDS011;3721;44.490;11.220;2023-02-28T12:52:32;14.93;;;8.30;;
7361;SDS011;3721;44.490;11.220;2023-02-28T12:55:08;13.40;;;7.70;;
7361;SDS011;3721;44.490;11.220;2023-02-28T12:57:47;13.53;;;7.60;;
7361;SDS011;3721;44.490;11.220;2023-02-28T13:00:16;12.77;;;7.53;;
7361;SDS011;3721;44.490;11.220;2023-02-28T13:02:48;15.43;;;8.33;;
7361;SDS011;3721;44.490;11.220;2023-02-28T13:10:36;13.10;;;7.60;;
7361;SDS011;3721;44.490;11.220;2023-02-28T13:13:03;13.13;;;8.50;;
7361;SDS011;3721;44.490;11.220;2023-02-28T13:15:29;14.60;;;8.27;;
7361;SDS011;3721;44.490;11.220;2023-02-28T13:18:00;12.73;;;7.47;;
7361;SDS011;3721;44.490;11.220;2023-02-28T13:20:34;18.57;;;8.20;;
7361;SDS011;3721;44.490;11.220;2023-02-28T13:23:00;16.77;;;8.30;;
7361;SDS011;3721;44.490;11.220;2023-02-28T13:27:59;13.47;;;8.10;;
7361;SDS011;3721;44.490;11.220;2023-02-28T13:35:45;15.43;;;8.30;;
7361;SDS011;3721;44.490;11.220;2023-02-28T13:38:16;14.27;;;8.07;;
7361;SDS011;3721;44.490;11.220;2023-02-28T13:40:42;17.60;;;9.00;;
7361;SDS011;3721;44.490;11.220;2023-02-28T13:43:08;13.10;;;8.27;;
7361;SDS011;3721;44.490;11.220;2023-02-28T13:45:35;13.63;;;8.80;;
7361;SDS011;3721;44.490;11.220;2023-02-28T13:48:19;13.90;;;7.77;;
7361;SDS011;3721;44.490;11.220;2023-02-28T13:50:46;13.80;;;8.23;;
7361;SDS011;3721;44.490;11.220;2023-02-28T14:06:27;13.97;;;8.17;;
7361;SDS011;3721;44.490;11.220;2023-02-28T14:11:40;15.60;;;8.67;;
7361;SDS011;3721;44.490;11.220;2023-02-28T14:14:07;17.80;;;9.57;;
7361;SDS011;3721;44.490;11.220;2023-02-28T14:19:12;14.53;;;9.60;;
7361;SDS011;3721;44.490;11.220;2023-02-28T14:21:43;15.47;;;9.40;;
7361;SDS011;3721;44.490;11.220;2023-02-28T14:26:58;17.10;;;10.77;;
7361;SDS011;3721;44.490;11.220;2023-02-28T14:32:02;18.93;;;10.50;;
7361;SDS011;3721;44.490;11.220;2023-02-28T14:34:40;19.83;;;10.53;;
7361;SDS011;3721;44.490;11.220;2023-02-28T14:37:13;16.83;;;9.67;;
7361;SDS011;3721;44.490;11.220;2023-02-28T14:39:41;16.20;;;10.47;;
7361;SDS011;3721;44.490;11.220;2023-02-28T14:44:54;18.70;;;10.57;;
7361;SDS011;3721;44.490;11.220;2023-02-28T14:47:23;16.10;;;10.00;;
7361;SDS011;3721;44.490;11.220;2023-02-28T14:49:51;19.50;;;10.50;;
7361;SDS011;3721;44.490;11.220;2023-02-28T14:52:19;17.67;;;10.77;;
7361;SDS011;3721;44.490;11.220;2023-02-28T14:54:46;16.43;;;8.97;;
7361;SDS011;3721;44.490;11.220;2023-02-28T14:57:24;15.40;;;8.83;;
7361;SDS011;3721;44.490;11.220;2023-02-28T15:02:37;13.90;;;9.40;;
7361;SDS011;3721;44.490;11.220;2023-02-28T15:05:16;17.50;;;10.60;;
7361;SDS011;3721;44.490;11.220;2023-02-28T15:07:44;20.33;;;10.20;;
7361;SDS011;3721;44.490;11.220;2023-02-28T15:10:24;17.37;;;9.83;;
7361;SDS011;3721;44.490;11.220;2023-02-28T15:12:52;17.27;;;11.10;;
7361;SDS011;3721;44.490;11.220;2023-02-28T15:15:19;18.07;;;10.10;;
7361;SDS011;3721;44.490;11.220;2023-02-28T15:17:46;20.33;;;12.10;;
7361;SDS011;3721;44.490;11.220;2023-02-28T15:20:14;17.40;;;10.10;;
7361;SDS011;3721;44.490;11.220;2023-02-28T15:22:41;24.27;;;12.60;;
7361;SDS011;3721;44.490;11.220;2023-02-28T15:25:09;20.97;;;13.40;;
7361;SDS011;3721;44.490;11.220;2023-02-28T15:27:38;21.43;;;12.03;;
7361;SDS011;3721;44.490;11.220;2023-02-28T15:30:06;22.57;;;11.97;;
7361;SDS011;3721;44.490;11.220;2023-02-28T15:32:36;25.80;;;11.20;;
7361;SDS011;3721;44.490;11.220;2023-02-28T15:37:53;25.13;;;12.60;;
7361;SDS011;3721;44.490;11.220;2023-02-28T15:40:26;19.47;;;11.80;;
7361;SDS011;3721;44.490;11.220;2023-02-28T15:45:29;23.20;;;13.77;;
7361;SDS011;3721;44.490;11.220;2023-02-28T15:47:57;21.40;;;12.50;;
7361;SDS011;3721;44.490;11.220;2023-02-28T15:50:23;22.43;;;12.43;;
7361;SDS011;3721;44.490;11.220;2023-02-28T15:52:49;21.47;;;12.33;;
7361;SDS011;3721;44.490;11.220;2023-02-28T15:55:18;22.60;;;12.40;;
7361;SDS011;3721;44.490;11.220;2023-02-28T15:57:44;19.37;;;11.60;;
7361;SDS011;3721;44.490;11.220;2023-02-28T16:00:15;20.60;;;12.57;;
7361;SDS011;3721;44.490;11.220;2023-02-28T16:02:41;20.90;;;11.90;;
7361;SDS011;3721;44.490;11.220;2023-02-28T16:07:43;20.17;;;11.90;;
7361;SDS011;3721;44.490;11.220;2023-02-28T16:10:10;19.27;;;12.10;;
7361;SDS011;3721;44.490;11.220;2023-02-28T16:12:39;26.67;;;12.67;;
7361;SDS011;3721;44.490;11.220;2023-02-28T16:15:06;23.13;;;12.37;;
7361;SDS011;3721;44.490;11.220;2023-02-28T16:17:33;23.77;;;13.60;;
7361;SDS011;3721;44.490;11.220;2023-02-28T16:19:59;25.03;;;13.90;;
7361;SDS011;3721;44.490;11.220;2023-02-28T16:22:25;23.10;;;13.63;;
7361;SDS011;3721;44.490;11.220;2023-02-28T16:24:51;21.57;;;12.70;;
7361;SDS011;3721;44.490;11.220;2023-02-28T16:27:29;23.73;;;13.20;;
7361;SDS011;3721;44.490;11.220;2023-02-28T16:29:56;21.23;;;13.13;;
7361;SDS011;3721;44.490;11.220;2023-02-28T16:32:22;20.70;;;12.10;;
7361;SDS011;3721;44.490;11.220;2023-02-28T16:34:48;24.00;;;12.73;;
7361;SDS011;3721;44.490;11.220;2023-02-28T16:37:14;21.17;;;12.23;;
7361;SDS011;3721;44.490;11.220;2023-02-28T16:39:41;22.47;;;12.47;;
7361;SDS011;3721;44.490;11.220;2023-02-28T16:42:15;22.03;;;12.27;;
7361;SDS011;3721;44.490;11.220;2023-02-28T16:44:41;22.97;;;12.83;;
7361;SDS011;3721;44.490;11.220;2023-02-28T16:47:08;22.23;;;12.20;;
7361;SDS011;3721;44.490;11.220;2023-02-28T16:49:35;23.70;;;13.17;;
7361;SDS011;3721;44.490;11.220;2023-02-28T16:52:01;22.30;;;12.80;;
7361;SDS011;3721;44.490;11.220;2023-02-28T16:54:27;21.57;;;12.30;;
7361;SDS011;3721;44.490;11.220;2023-02-28T16:56:53;20.23;;;12.43;;
7361;SDS011;3721;44.490;11.220;2023-02-28T16:59:22;23.07;;;13.60;;
7361;SDS011;3721;44.490;11.220;2023-02-28T17:01:49;25.43;;;12.43;;
7361;SDS011;3721;44.490;11.220;2023-02-28T17:04:15;29.17;;;13.87;;
7361;SDS011;3721;44.490;11.220;2023-02-28T17:06:41;27.53;;;12.43;;
7361;SDS011;3721;44.490;11.220;2023-02-28T17:09:08;19.90;;;11.53;;
7361;SDS011;3721;44.490;11.220;2023-02-28T17:11:40;23.43;;;13.30;;
7361;SDS011;3721;44.490;11.220;2023-02-28T17:14:06;21.47;;;12.77;;
7361;SDS011;3721;44.490;11.220;2023-02-28T17:16:32;21.40;;;12.80;;
7361;SDS011;3721;44.490;11.220;2023-02-28T17:19:00;21.17;;;13.53;;
7361;SDS011;3721;44.490;11.220;2023-02-28T17:21:26;18.53;;;10.77;;
7361;SDS011;3721;44.490;11.220;2023-02-28T17:23:52;19.13;;;11.40;;
7361;SDS011;3721;44.490;11.220;2023-02-28T17:26:19;22.00;;;12.77;;
7361;SDS011;3721;44.490;11.220;2023-02-28T17:28:56;30.08;;;13.50;;
7361;SDS011;3721;44.490;11.220;2023-02-28T17:31:23;23.07;;;12.40;;
7361;SDS011;3721;44.490;11.220;2023-02-28T17:33:54;21.98;;;12.35;;
7361;SDS011;3721;44.490;11.220;2023-02-28T17:36:21;21.56;;;12.49;;
7361;SDS011;3721;44.490;11.220;2023-02-28T17:38:49;17.47;;;11.17;;
7361;SDS011;3721;44.490;11.220;2023-02-28T17:41:15;16.63;;;11.27;;
7361;SDS011;3721;44.490;11.220;2023-02-28T17:43:42;20.87;;;11.67;;
7361;SDS011;3721;44.490;11.220;2023-02-28T17:46:14;24.53;;;12.20;;
7361;SDS011;3721;44.490;11.220;2023-02-28T17:48:41;22.50;;;11.83;;
7361;SDS011;3721;44.490;11.220;2023-02-28T17:51:08;21.87;;;12.50;;
7361;SDS011;3721;44.490;11.220;2023-02-28T17:53:34;23.57;;;12.37;;